Time;durP1;ratioP1;P1;durP2;ratioP2;P2;SDS_P1;SDS_P2;PMS_P1;PMS_P2;Temp;Humidity;BMP_temperature;BMP_pressure;BME280_temperature;BME280_humidity;BME280_pressure;Samples;Min_cycle;Max_cycle;Signal;HPM_P1;HPM_P2
2023/11/25 00:00:06;;;;;;;11.88;1.75;;;;;;;1.58;100.00;99086.66;5045834;28;20043;-73
2023/11/25 00:02:37;;;;;;;3.58;1.33;;;;;;;1.44;100.00;99094.03;5045251;28;20037;-73
2023/11/25 00:05:03;;;;;;;8.95;1.55;;;;;;;1.34;100.00;99106.41;5036267;28;21377;-73
2023/11/25 00:07:29;;;;;;;10.07;1.77;;;;;;;1.34;100.00;99116.09;5053539;28;20056;-72
2023/11/25 00:09:54;;;;;;;;;;;;;;;1.46;100.00;99146.50;5049381;28;20061;-72
2023/11/25 00:12:20;;;;;;;8.68;1.88;;;;;;;1.34;100.00;99118.72;5046857;28;19948;-72
2023/11/25 00:14:45;;;;;;;11.25;1.58;;;;;;;1.37;100.00;99115.81;5034550;28;20029;-73
2023/11/25 00:17:11;;;;;;;9.35;3.13;;;;;;;1.36;100.00;99129.91;5045219;28;20377;-72
2023/11/25 00:19:36;;;;;;;5.95;1.98;;;;;;;1.35;100.00;99121.19;5041525;28;20868;-74
2023/11/25 00:22:02;;;;;;;7.72;1.58;;;;;;;1.30;100.00;99098.94;5046166;28;20044;-73
2023/11/25 00:24:27;;;;;;;10.18;2.17;;;;;;;1.36;100.00;99114.13;5029011;28;20025;-73
2023/11/25 00:26:52;;;;;;;9.07;3.03;;;;;;;1.28;100.00;99109.59;5029011;28;20028;-73
2023/11/25 00:29:18;;;;;;;18.70;3.35;;;;;;;1.30;100.00;99133.13;5030994;28;20024;-72
2023/11/25 00:31:48;;;;;;;9.43;1.42;;;;;;;1.27;100.00;99150.84;5028690;28;20032;-73
2023/11/25 00:34:14;;;;;;;5.93;1.52;;;;;;;1.27;100.00;99142.13;5043750;28;20033;-72
2023/11/25 00:36:39;;;;;;;4.28;1.55;;;;;;;1.19;100.00;99134.94;5028964;28;20104;-72
2023/11/25 00:39:06;;;;;;;8.73;1.85;;;;;;;1.25;100.00;99160.66;5036947;28;20040;-73
2023/11/25 00:41:33;;;;;;;8.38;3.00;;;;;;;1.15;100.00;99123.06;5011964;28;20131;-73
2023/11/25 00:43:59;;;;;;;11.55;2.15;;;;;;;1.11;100.00;99132.19;5046498;28;20028;-72
2023/11/25 00:46:24;;;;;;;9.27;1.73;;;;;;;1.07;100.00;99151.84;5028559;28;20147;-72
2023/11/25 00:48:52;;;;;;;8.18;1.25;;;;;;;1.08;100.00;99179.78;5012179;28;20418;-74
2023/11/25 00:51:17;;;;;;;9.90;1.50;;;;;;;1.14;100.00;99187.09;5052333;28;20021;-73
2023/11/25 00:53:43;;;;;;;6.90;2.35;;;;;;;1.06;100.00;99197.50;5028527;28;20035;-73
2023/11/25 00:56:09;;;;;;;4.68;1.23;;;;;;;1.03;100.00;99176.72;5028033;28;20039;-72
2023/11/25 00:58:34;;;;;;;7.85;1.52;;;;;;;1.14;100.00;99194.16;5028639;28;20032;-73
2023/11/25 01:00:59;;;;;;;4.82;1.30;;;;;;;1.12;100.00;99199.56;5027750;28;20408;-72
2023/11/25 01:03:25;;;;;;;5.13;1.30;;;;;;;1.02;100.00;99190.84;5011898;28;20120;-74
2023/11/25 01:05:50;;;;;;;10.18;1.77;;;;;;;1.03;100.00;99197.75;5027756;28;20028;-75
2023/11/25 01:08:16;;;;;;;5.50;1.10;;;;;;;0.99;100.00;99206.91;5046231;28;20466;-75
2023/11/25 01:10:41;;;;;;;6.43;1.15;;;;;;;1.07;100.00;99224.59;5023927;28;20814;-72
2023/11/25 01:13:06;;;;;;;9.77;2.25;;;;;;;0.88;100.00;99170.25;5030959;28;20708;-74
2023/11/25 01:15:32;;;;;;;4.72;1.33;;;;;;;0.92;100.00;99196.13;5013712;28;20031;-74
2023/11/25 01:17:58;;;;;;;9.65;1.42;;;;;;;0.99;100.00;99207.75;5011404;28;20043;-75
2023/11/25 01:20:23;;;;;;;6.60;1.42;;;;;;;0.92;100.00;99182.16;5008205;28;20112;-73
2023/11/25 01:22:49;;;;;;;7.82;2.00;;;;;;;0.86;100.00;99177.44;5027539;28;20059;-72
2023/11/25 01:25:15;;;;;;;;;;;;;;;0.88;100.00;99199.16;5032171;28;20024;-72
2023/11/25 01:27:42;;;;;;;6.63;1.20;;;;;;;0.89;100.00;99227.09;5041108;28;20457;-72
2023/11/25 01:30:08;;;;;;;6.55;1.20;;;;;;;0.90;100.00;99237.47;5040701;28;20032;-74
2023/11/25 01:32:34;;;;;;;3.72;1.20;;;;;;;0.90;100.00;99213.81;5030580;28;20395;-74
2023/11/25 01:34:59;;;;;;;4.90;1.20;;;;;;;0.90;100.00;99219.06;5030140;28;20029;-74
2023/11/25 01:37:28;;;;;;;16.35;2.50;;;;;;;0.84;100.00;99215.22;5013570;28;20029;-74
2023/11/25 01:39:54;;;;;;;11.65;2.35;;;;;;;0.86;100.00;99243.13;5038690;28;20025;-74
2023/11/25 01:42:19;;;;;;;3.10;1.23;;;;;;;0.76;100.00;99246.59;5034133;28;20024;-74
2023/11/25 01:44:45;;;;;;;9.50;1.65;;;;;;;0.65;100.00;99241.44;5051549;28;20053;-74
2023/11/25 01:47:12;;;;;;;7.20;1.10;;;;;;;0.74;100.00;99287.09;5014237;28;20036;-74
2023/11/25 01:49:38;;;;;;;11.63;2.13;;;;;;;0.63;100.00;99280.16;5031689;28;20479;-75
2023/11/25 01:52:07;;;;;;;10.20;1.55;;;;;;;0.70;100.00;99311.97;5031063;28;20491;-74
2023/11/25 01:54:34;;;;;;;4.15;1.20;;;;;;;0.66;100.00;99300.09;5017021;28;20032;-75
2023/11/25 01:57:01;;;;;;;20.83;2.25;;;;;;;0.58;100.00;99279.72;5031275;28;20040;-74
2023/11/25 01:59:27;;;;;;;4.78;0.93;;;;;;;0.60;100.00;99260.22;5061262;28;20822;-75
2023/11/25 02:01:53;;;;;;;;;;;;;;;0.69;100.00;99292.75;5040021;28;20120;-75
2023/11/25 02:04:18;;;;;;;8.93;1.42;;;;;;;0.61;100.00;99274.22;5006646;28;19993;-75
2023/11/25 02:06:44;;;;;;;5.40;1.33;;;;;;;0.50;100.00;99258.56;5031216;28;20035;-74
2023/11/25 02:09:11;;;;;;;6.28;1.00;;;;;;;0.47;100.00;99306.09;5039719;28;20033;-72
2023/11/25 02:12:00;;;;;;;5.05;0.93;;;;;;;0.44;100.00;99317.69;5039172;28;20032;-73
2023/11/25 02:14:26;;;;;;;8.82;1.10;;;;;;;0.36;100.00;99341.16;5029965;28;20715;-72
2023/11/25 02:16:52;;;;;;;7.32;1.48;;;;;;;0.41;100.00;99359.97;5049367;28;20013;-72
2023/11/25 02:19:21;;;;;;;4.22;1.35;;;;;;;0.39;100.00;99367.97;5031103;28;20083;-74
2023/11/25 02:21:47;;;;;;;8.77;1.70;;;;;;;0.39;100.00;99381.09;5030446;28;20032;-73
2023/11/25 02:24:13;;;;;;;6.82;1.70;;;;;;;0.36;100.00;99391.03;5029318;28;20044;-73
2023/11/25 02:26:38;;;;;;;;;;;;;;;0.35;100.00;99403.34;5019596;28;20029;-72
2023/11/25 02:29:05;;;;;;;3.33;1.10;;;;;;;0.30;100.00;99407.31;5019338;28;19919;-72
2023/11/25 02:31:31;;;;;;;9.80;1.40;;;;;;;0.21;100.00;99419.41;5016346;28;20075;-72
2023/11/25 02:33:57;;;;;;;4.88;1.75;;;;;;;0.28;100.00;99427.59;5031241;28;20766;-75
2023/11/25 02:36:24;;;;;;;7.32;1.20;;;;;;;0.40;100.00;99437.91;5068693;28;20415;-74
2023/11/25 02:38:49;;;;;;;8.57;2.00;;;;;;;0.54;100.00;99456.91;5061237;28;20025;-74
2023/11/25 02:41:15;;;;;;;10.48;1.67;;;;;;;0.62;100.00;99454.47;5028368;28;20390;-74
2023/11/25 02:43:41;;;;;;;7.53;1.20;;;;;;;0.66;100.00;99447.19;5051542;28;20175;-74
2023/11/25 02:46:07;;;;;;;5.18;1.10;;;;;;;0.74;100.00;99456.06;5022832;28;20555;-74
2023/11/25 02:48:32;;;;;;;6.15;1.80;;;;;;;0.70;100.00;99449.41;5068375;28;20045;-76
2023/11/25 02:50:57;;;;;;;6.35;1.30;;;;;;;0.74;100.00;99456.06;5023707;28;20041;-73
2023/11/25 02:53:23;;;;;;;10.73;1.48;;;;;;;0.66;100.00;99428.81;5048979;28;20052;-72
2023/11/25 02:55:49;;;;;;;8.10;1.45;;;;;;;0.75;100.00;99449.00;5030693;28;20049;-74
2023/11/25 02:58:15;;;;;;;;;;;;;;;0.88;100.00;99456.69;5035971;28;20032;-74
2023/11/25 03:00:40;;;;;;;6.25;1.10;;;;;;;0.79;100.00;99429.38;5028458;28;19909;-75
2023/11/25 03:03:22;;;;;;;9.18;1.30;;;;;;;0.90;100.00;99418.78;5050521;28;20044;-73
2023/11/25 03:05:52;;;;;;;5.72;1.50;;;;;;;0.98;100.00;99404.97;5024099;28;20418;-73
2023/11/25 03:08:18;;;;;;;7.53;2.00;;;;;;;1.02;100.00;99380.09;5023675;28;20045;-73
2023/11/25 03:10:46;;;;;;;10.15;1.08;;;;;;;1.03;100.00;99358.09;5016590;28;20024;-72
2023/11/25 03:13:12;;;;;;;5.50;1.10;;;;;;;1.07;100.00;99320.06;5032813;28;20032;-73
2023/11/25 03:15:38;;;;;;;5.30;0.98;;;;;;;1.09;100.00;99304.97;5030315;28;20101;-72
2023/11/25 03:18:07;;;;;;;7.95;1.25;;;;;;;0.96;100.00;99286.88;5017132;28;20501;-73
2023/11/25 03:20:35;;;;;;;7.38;1.40;;;;;;;1.03;100.00;99309.00;5023259;28;20036;-72
2023/11/25 03:23:03;;;;;;;6.75;1.33;;;;;;;1.03;100.00;99314.25;5014829;28;20386;-73
2023/11/25 03:25:30;;;;;;;7.38;1.13;;;;;;;1.03;100.00;99310.78;5059085;28;20449;-75
2023/11/25 03:27:57;;;;;;;5.82;1.42;;;;;;;0.95;100.00;99277.31;5033329;28;20028;-74
2023/11/25 03:30:23;;;;;;;8.93;1.10;;;;;;;1.05;100.00;99293.06;5058442;28;20518;-75
2023/11/25 03:32:49;;;;;;;6.82;1.38;;;;;;;1.02;100.00;99249.50;5022436;28;20149;-75
2023/11/25 03:35:16;;;;;;;11.25;1.42;;;;;;;1.08;100.00;99263.06;5032659;28;20479;-74
2023/11/25 03:37:41;;;;;;;6.05;0.90;;;;;;;1.27;100.00;99270.97;5033072;28;20449;-73
2023/11/25 03:40:10;;;;;;;7.00;1.17;;;;;;;1.26;100.00;99224.59;5008221;28;20029;-73
2023/11/25 03:42:36;;;;;;;6.65;1.70;;;;;;;1.30;100.00;99178.66;5032691;28;20091;-74
2023/11/25 03:45:01;;;;;;;4.70;1.27;;;;;;;1.32;100.00;99157.47;5016437;28;20013;-72
2023/11/25 03:47:28;;;;;;;2.72;1.08;;;;;;;1.31;100.00;99133.00;5049428;28;20103;-73
2023/11/25 03:49:54;;;;;;;5.97;1.80;;;;;;;1.36;100.00;99114.97;5032018;28;20032;-73
2023/11/25 03:52:21;;;;;;;5.70;0.85;;;;;;;1.40;100.00;99089.22;5032746;28;20035;-73
2023/11/25 03:54:46;;;;;;;9.23;0.90;;;;;;;1.46;100.00;99101.78;5032637;28;20020;-73
2023/11/25 03:57:12;;;;;;;3.42;1.70;;;;;;;1.44;100.00;99064.28;5032829;28;20028;-73
2023/11/25 03:59:37;;;;;;;5.60;0.95;;;;;;;1.43;100.00;99054.75;5032781;28;20394;-73
2023/11/25 04:02:02;;;;;;;7.13;0.95;;;;;;;1.42;100.00;99038.13;5015717;28;20397;-73
2023/11/25 04:04:28;;;;;;;9.07;2.10;;;;;;;1.57;100.00;99040.25;5025723;28;20039;-73
2023/11/25 04:06:53;;;;;;;3.63;0.87;;;;;;;1.60;100.00;99026.84;5029206;28;20049;-72
2023/11/25 04:09:19;;;;;;;9.65;2.85;;;;;;;1.59;100.00;98989.19;5033805;28;20284;-73
2023/11/25 04:12:03;;;;;;;7.55;1.27;;;;;;;1.68;100.00;98982.19;5056345;28;20538;-73
2023/11/25 04:14:47;;;;;;;3.00;1.23;;;;;;;1.69;100.00;98991.75;5037009;28;20049;-72
2023/11/25 04:17:31;;;;;;;8.00;0.93;;;;;;;1.64;100.00;98967.69;5055777;28;20124;-74
2023/11/25 04:20:23;;;;;;;4.63;1.13;;;;;;;1.54;100.00;98946.69;5067765;28;20105;-72
2023/11/25 04:23:08;;;;;;;3.15;0.68;;;;;;;1.65;100.00;98975.44;5043845;28;20059;-72
2023/11/25 04:25:52;;;;;;;2.55;0.70;;;;;;;1.79;100.00;98994.31;5048126;28;20052;-73
2023/11/25 04:28:36;;;;;;;4.30;1.55;;;;;;;1.86;100.00;99016.44;5051346;28;20043;-72
2023/11/25 04:31:20;;;;;;;3.20;0.90;;;;;;;1.77;100.00;99009.41;5048200;28;20051;-72
2023/11/25 04:34:05;;;;;;;4.47;1.00;;;;;;;1.86;100.00;99001.47;5062830;28;20091;-72
2023/11/25 04:36:50;;;;;;;6.88;3.65;;;;;;;1.85;100.00;99083.16;5066204;28;20039;-72
2023/11/25 04:39:34;;;;;;;9.35;1.83;;;;;;;1.85;100.00;99176.13;5065845;28;20043;-73
2023/11/25 04:42:18;;;;;;;4.75;1.13;;;;;;;1.82;100.00;99278.22;5062414;28;20095;-72
2023/11/25 04:45:03;;;;;;;4.38;1.13;;;;;;;1.94;100.00;99376.25;5063836;28;20047;-72
2023/11/25 04:47:48;;;;;;;6.10;1.40;;;;;;;1.87;100.00;99449.69;5033281;28;20044;-73
2023/11/25 05:05:46;;;;;;;15.18;1.80;;;;;;;1.92;100.00;99547.50;5058653;28;20035;-72
2023/11/25 05:08:12;;;;;;;14.98;1.50;;;;;;;1.93;100.00;99549.16;5047690;28;20040;-73
2023/11/25 05:10:37;;;;;;;6.82;2.55;;;;;;;1.88;100.00;99554.00;5031370;28;20047;-72
2023/11/25 05:13:04;;;;;;;4.40;1.27;;;;;;;1.94;100.00;99581.59;5039402;28;20032;-72
2023/11/25 05:15:29;;;;;;;9.60;1.20;;;;;;;1.73;100.00;99573.78;5047711;28;20029;-73
2023/11/25 05:17:55;;;;;;;11.27;1.08;;;;;;;1.83;100.00;99580.75;5047727;28;20024;-72
2023/11/25 05:20:21;;;;;;;8.35;1.80;;;;;;;1.80;100.00;99582.78;5043799;28;20028;-72
2023/11/25 05:22:47;;;;;;;9.52;1.60;;;;;;;1.81;100.00;99597.63;5060677;28;20028;-72
2023/11/25 05:25:15;;;;;;;9.52;1.98;;;;;;;1.74;100.00;99573.66;5022036;28;20033;-72
2023/11/25 05:27:42;;;;;;;8.70;1.35;;;;;;;1.82;100.00;99594.84;5047489;28;20104;-72
2023/11/25 05:30:12;;;;;;;6.63;1.30;;;;;;;1.86;100.00;99601.50;5056530;28;20179;-72
2023/11/25 05:32:38;;;;;;;11.13;1.48;;;;;;;1.57;100.00;99559.34;5018194;28;20080;-72
2023/11/25 05:35:06;;;;;;;4.88;1.00;;;;;;;1.69;100.00;99591.66;5053291;28;20064;-72
2023/11/25 05:37:31;;;;;;;11.90;1.70;;;;;;;1.78;100.00;99613.66;5050159;28;20074;-72
2023/11/25 05:39:57;;;;;;;10.48;1.70;;;;;;;1.82;100.00;99620.34;5040892;28;20036;-72
2023/11/25 05:42:27;;;;;;;14.57;2.30;;;;;;;1.83;100.00;99612.31;5018205;28;20133;-73
2023/11/25 05:44:55;;;;;;;12.20;2.47;;;;;;;1.78;100.00;99613.66;5038458;28;20033;-73
2023/11/25 05:47:21;;;;;;;9.15;1.33;;;;;;;1.84;100.00;99623.69;5044425;28;20435;-72
2023/11/25 05:49:48;;;;;;;5.82;1.38;;;;;;;1.79;100.00;99610.91;5017943;28;20028;-73
2023/11/25 05:52:13;;;;;;;8.02;1.85;;;;;;;1.76;100.00;99610.38;5027868;28;20048;-72
2023/11/25 05:54:39;;;;;;;12.18;1.70;;;;;;;1.67;100.00;99596.22;5051196;28;20025;-73
2023/11/25 05:57:04;;;;;;;8.68;1.33;;;;;;;1.69;100.00;99613.53;5055229;28;20083;-72
2023/11/25 05:59:30;;;;;;;11.30;2.08;;;;;;;1.72;100.00;99622.94;5032037;28;20093;-72
2023/11/25 06:01:55;;;;;;;15.55;1.60;;;;;;;1.59;100.00;99607.41;5037641;28;20068;-73
2023/11/25 06:04:21;;;;;;;8.93;1.92;;;;;;;1.61;100.00;99608.06;5007319;28;20056;-73
2023/11/25 06:06:46;;;;;;;10.70;1.02;;;;;;;1.50;100.00;99609.97;5042071;28;20111;-73
2023/11/25 06:09:12;;;;;;;12.95;2.80;;;;;;;1.47;100.00;99616.31;5038440;28;20078;-72
2023/11/25 06:11:38;;;;;;;11.07;1.63;;;;;;;1.41;100.00;99622.97;5018873;28;20391;-73
2023/11/25 06:14:04;;;;;;;17.02;2.10;;;;;;;1.45;100.00;99615.63;5026504;28;20037;-72
2023/11/25 06:16:30;;;;;;;7.45;2.08;;;;;;;1.48;100.00;99629.34;5039059;28;20067;-72
2023/11/25 06:18:56;;;;;;;14.95;2.53;;;;;;;1.37;100.00;99625.97;5057061;28;20052;-72
2023/11/25 06:21:21;;;;;;;8.20;2.25;;;;;;;1.35;100.00;99633.16;5044764;28;20140;-72
2023/11/25 06:23:48;;;;;;;9.80;1.95;;;;;;;1.25;100.00;99622.59;5034303;23;20529;-77
2023/11/25 06:26:14;;;;;;;6.20;1.50;;;;;;;1.19;100.00;99618.69;5009262;28;20041;-76
2023/11/25 06:28:41;;;;;;;10.50;1.42;;;;;;;1.17;100.00;99625.88;5032970;28;20025;-77
2023/11/25 06:31:07;;;;;;;14.32;2.28;;;;;;;1.12;100.00;99627.22;5035483;28;20029;-76
2023/11/25 06:33:33;;;;;;;12.68;1.63;;;;;;;1.09;100.00;99638.81;5039873;28;20141;-76
2023/11/25 06:35:59;;;;;;;13.13;1.88;;;;;;;1.01;100.00;99641.28;5007282;28;20034;-77
2023/11/25 06:38:24;;;;;;;11.27;1.65;;;;;;;1.10;100.00;99658.91;5020814;28;20029;-77
2023/11/25 06:40:50;;;;;;;6.65;1.83;;;;;;;1.18;100.00;99669.59;5035740;28;20033;-76
2023/11/25 06:43:15;;;;;;;12.70;3.47;;;;;;;1.26;100.00;99682.09;5009543;28;20025;-76
2023/11/25 06:45:41;;;;;;;7.32;1.30;;;;;;;1.36;100.00;99682.16;4996366;28;20030;-77
2023/11/25 06:48:10;;;;;;;12.15;1.27;;;;;;;1.45;100.00;99679.59;5036131;28;20037;-77
2023/11/25 06:50:35;;;;;;;13.52;2.53;;;;;;;1.42;100.00;99681.66;5033327;28;20037;-77
2023/11/25 06:53:01;;;;;;;2.72;1.70;;;;;;;1.29;100.00;99659.97;5040140;28;20515;-77
2023/11/25 06:55:26;;;;;;;10.40;1.88;;;;;;;1.42;100.00;99684.28;4997897;28;20041;-76
2023/11/25 06:57:51;;;;;;;10.50;1.77;;;;;;;1.41;100.00;99682.63;5002814;28;20064;-77
2023/11/25 07:00:17;;;;;;;10.70;2.42;;;;;;;1.35;100.00;99673.44;5024045;28;20045;-76
2023/11/25 07:02:43;;;;;;;11.20;2.40;;;;;;;1.41;100.00;99688.72;5020701;28;20195;-76
2023/11/25 07:05:09;;;;;;;6.60;1.20;;;;;;;1.38;100.00;99674.97;5009100;28;20026;-76
2023/11/25 07:07:34;;;;;;;;;;;;;;;1.42;100.00;99689.53;5013070;28;20029;-77
2023/11/25 07:10:00;;;;;;;10.65;1.55;;;;;;;1.29;100.00;99679.25;5026892;28;19919;-76
2023/11/25 07:12:25;;;;;;;10.20;1.65;;;;;;;1.32;100.00;99686.03;4990563;28;20163;-76
2023/11/25 07:14:50;;;;;;;8.07;1.88;;;;;;;1.46;100.00;99706.75;5005557;28;20325;-76
2023/11/25 07:17:16;;;;;;;6.68;1.40;;;;;;;1.51;100.00;99707.19;5023380;28;20025;-76
2023/11/25 07:19:42;;;;;;;5.85;2.05;;;;;;;1.50;100.00;99707.28;5006844;28;20400;-76
2023/11/25 07:22:08;;;;;;;10.68;2.97;;;;;;;1.48;100.00;99705.66;5014961;28;20424;-76
2023/11/25 07:24:34;;;;;;;14.15;1.20;;;;;;;1.59;100.00;99717.91;5000059;28;20021;-77
2023/11/25 07:27:04;;;;;;;;;;;;;;;1.71;100.00;99729.19;5026516;28;20104;-76
2023/11/25 07:29:33;;;;;;;6.30;1.63;;;;;;;1.79;100.00;99742.50;5020606;28;20418;-77
2023/11/25 07:32:01;;;;;;;14.52;1.65;;;;;;;1.80;100.00;99738.94;5008440;28;20377;-77
2023/11/25 07:34:28;;;;;;;11.10;2.45;;;;;;;1.87;100.00;99747.09;5003260;28;20867;-77
2023/11/25 07:36:55;;;;;;;13.07;2.40;;;;;;;1.95;100.00;99749.09;5017177;28;20029;-76
2023/11/25 07:39:22;;;;;;;8.77;2.45;;;;;;;2.03;100.00;99749.25;5021540;28;20018;-76
2023/11/25 07:41:53;;;;;;;8.27;1.85;;;;;;;2.07;100.00;99751.50;5006378;28;20025;-76
2023/11/25 07:44:23;;;;;;;8.85;1.70;;;;;;;1.96;100.00;99727.91;5014302;28;20033;-76
2023/11/25 07:46:49;;;;;;;6.18;1.35;;;;;;;2.11;100.00;99747.66;5028447;28;20108;-77
2023/11/25 07:49:15;;;;;;;7.13;2.15;;;;;;;2.08;100.00;99742.66;5017840;28;20552;-76
2023/11/25 07:51:40;;;;;;;13.35;2.20;;;;;;;2.21;100.00;99757.38;4999169;28;20045;-76
2023/11/25 07:54:08;;;;;;;8.15;2.08;;;;;;;2.31;100.00;99763.50;5003517;28;20046;-76
2023/11/25 07:56:34;;;;;;;12.75;2.85;;;;;;;2.37;100.00;99759.53;5018246;28;20022;-76
2023/11/25 07:58:59;;;;;;;8.45;2.25;;;;;;;2.39;100.00;99749.66;5021103;28;20404;-76
2023/11/25 08:01:26;;;;;;;14.68;3.67;;;;;;;2.40;100.00;99754.81;5013834;28;20044;-76
2023/11/25 08:03:52;;;;;;;;;;;;;;;2.46;100.00;99756.91;5017811;28;20100;-76
2023/11/25 08:06:18;;;;;;;12.80;2.67;;;;;;;2.46;100.00;99754.28;5006676;28;20416;-76
2023/11/25 08:08:45;;;;;;;18.83;3.80;;;;;;;2.46;100.00;99750.81;5011836;28;20030;-76
2023/11/25 08:11:11;;;;;;;6.82;1.45;;;;;;;2.48;100.00;99754.97;5002394;28;20495;-76
2023/11/25 08:13:37;;;;;;;;;;;;;;;2.40;100.00;99741.63;5006355;28;20069;-77
2023/11/25 08:16:04;;;;;;;7.05;1.40;;;;;;;2.47;100.00;99744.56;5020734;28;20003;-76
2023/11/25 08:18:30;;;;;;;7.28;2.45;;;;;;;2.56;100.00;99750.84;5021260;28;20473;-76
2023/11/25 08:20:56;;;;;;;16.40;3.05;;;;;;;2.68;100.00;99755.03;4988178;28;20720;-76
2023/11/25 08:23:21;;;;;;;9.13;3.22;;;;;;;2.70;100.00;99759.19;5023209;28;20033;-76
2023/11/25 08:25:47;;;;;;;19.08;2.15;;;;;;;2.77;100.00;99754.22;5021071;28;20041;-78
2023/11/25 08:28:12;;;;;;;7.27;1.93;;;;;;;2.80;100.00;99747.81;5010826;28;20034;-77
2023/11/25 08:30:38;;;;;;;6.63;1.70;;;;;;;2.78;100.00;99737.41;5014555;28;20291;-77
2023/11/25 08:33:04;;;;;;;9.00;2.15;;;;;;;2.95;100.00;99760.47;5000912;28;20275;-76
2023/11/25 08:35:30;;;;;;;9.98;2.45;;;;;;;2.90;100.00;99749.50;5001222;28;20038;-77
2023/11/25 08:37:55;;;;;;;11.07;1.70;;;;;;;2.93;100.00;99758.94;5016909;28;20034;-77
2023/11/25 08:40:21;;;;;;;8.60;2.95;;;;;;;3.03;100.00;99770.31;5015354;28;20049;-77
2023/11/25 08:42:47;;;;;;;8.00;1.90;;;;;;;3.13;100.00;99765.06;5004384;28;20097;-77
2023/11/25 08:45:13;;;;;;;3.63;1.60;;;;;;;3.28;100.00;99766.31;5012349;28;20061;-77
2023/11/25 08:47:41;;;;;;;7.53;1.77;;;;;;;3.33;100.00;99760.63;5010650;28;20026;-77
2023/11/25 08:50:09;;;;;;;8.23;2.35;;;;;;;3.47;100.00;99756.72;5003863;28;20267;-78
2023/11/25 08:52:38;;;;;;;6.22;1.65;;;;;;;3.46;100.00;99744.47;5028529;28;20033;-78
2023/11/25 08:55:07;;;;;;;9.25;1.75;;;;;;;3.64;100.00;99741.97;5003630;28;20134;-77
2023/11/25 08:57:36;;;;;;;8.57;1.63;;;;;;;3.53;100.00;99721.81;5036393;28;20655;-78
2023/11/25 09:00:14;;;;;;;9.77;2.25;;;;;;;3.48;100.00;99713.50;5004826;28;20022;-77
2023/11/25 09:02:44;;;;;;;3.65;1.45;;;;;;;3.34;100.00;99712.97;5037003;28;20041;-78
2023/11/25 09:05:10;;;;;;;2.95;1.27;;;;;;;3.21;100.00;99698.41;5006315;28;20036;-77
2023/11/25 09:07:38;;;;;;;9.13;1.70;;;;;;;3.09;100.00;99710.91;5012409;28;20022;-77
2023/11/25 09:10:05;;;;;;;5.45;2.00;;;;;;;3.14;100.00;99740.34;4996137;28;20041;-77
2023/11/25 09:12:31;;;;;;;8.63;3.20;;;;;;;3.33;100.00;99748.25;5032296;28;20013;-77
2023/11/25 09:14:56;;;;;;;3.33;1.45;;;;;;;3.87;100.00;99790.81;5025455;28;20870;-77
2023/11/25 09:17:21;;;;;;;5.67;2.07;;;;;;;3.75;100.00;99745.25;5004693;28;20033;-77
2023/11/25 09:19:47;;;;;;;6.20;3.07;;;;;;;3.89;100.00;99729.94;5013828;28;20484;-77
2023/11/25 09:22:12;;;;;;;6.60;1.53;;;;;;;3.67;100.00;99689.69;5018112;28;20691;-77
2023/11/25 09:24:39;;;;;;;9.40;1.90;;;;;;;4.21;100.00;99740.94;5013879;28;20683;-78
2023/11/25 09:27:05;;;;;;;5.75;1.73;;;;;;;4.90;100.00;99753.75;4995406;28;20049;-78
2023/11/25 09:29:36;;;;;;;7.47;2.13;;;;;;;5.81;100.00;99746.38;4984022;28;20079;-78
2023/11/25 09:32:02;;;;;;;5.45;1.73;;;;;;;6.45;100.00;99646.13;5016279;28;20041;-77
2023/11/25 09:34:27;;;;;;;9.48;2.22;;;;;;;7.39;100.00;99598.84;5016274;28;20034;-78
2023/11/25 09:36:53;;;;;;;10.02;3.22;;;;;;;7.09;100.00;99455.25;5021852;28;20142;-78
2023/11/25 09:39:18;;;;;;;4.30;1.90;;;;;;;7.72;100.00;99370.28;5006513;28;20493;-78
2023/11/25 09:41:44;;;;;;;4.07;1.60;;;;;;;8.50;100.00;99299.09;5010145;28;20215;-77
2023/11/25 09:44:10;;;;;;;4.20;1.40;;;;;;;9.46;100.00;99166.63;5017442;28;20076;-77
2023/11/25 09:46:35;;;;;;;;;;;;;;;10.02;100.00;98979.94;5024313;28;20045;-78
2023/11/25 09:49:01;;;;;;;4.85;1.23;;;;;;;10.75;100.00;98787.00;4994613;28;20162;-78
2023/11/25 09:51:27;;;;;;;4.43;1.30;;;;;;;10.81;100.00;98588.63;5021877;28;20037;-78
2023/11/25 09:53:56;;;;;;;4.25;1.60;;;;;;;10.88;100.00;98444.41;4998189;28;20045;-78
2023/11/25 09:56:22;;;;;;;3.40;1.52;;;;;;;10.64;100.00;98302.00;5001519;28;20782;-79
2023/11/25 09:58:49;;;;;;;3.10;1.02;;;;;;;11.23;100.00;98254.22;5042195;28;20041;-79
2023/11/25 10:01:14;;;;;;;2.22;1.15;;;;;;;12.11;100.00;98138.47;4994151;28;20029;-79
2023/11/25 10:03:43;;;;;;;5.47;1.85;;;;;;;11.60;100.00;97827.34;5019166;28;20103;-79
2023/11/25 10:06:09;;;;;;;2.70;1.00;;;;;;;10.90;100.00;97842.56;4993853;28;20061;-78
2023/11/25 10:08:35;;;;;;;2.80;1.90;;;;;;;11.36;100.00;97859.50;4994218;28;20492;-78
2023/11/25 10:11:00;;;;;;;9.40;2.05;;;;;;;11.83;100.00;97827.22;5005958;28;20030;-78
2023/11/25 10:13:31;;;;;;;3.53;1.15;;;;;;;11.60;100.00;97790.75;5029008;28;20025;-79
2023/11/25 10:15:57;;;;;;;7.88;1.48;;;;;;;11.43;100.00;97719.66;5042803;28;20080;-79
2023/11/25 10:18:24;;;;;;;3.23;1.43;;;;;;;12.20;100.00;97756.44;5011338;28;20480;-78
2023/11/25 10:20:57;;;;;;;4.50;1.02;;;;;;;11.50;100.00;97421.09;5025073;28;20339;-79
2023/11/25 10:23:23;;;;;;;2.78;1.08;;;;;;;11.52;100.00;97680.78;5007028;28;20467;-78
2023/11/25 10:25:50;;;;;;;;;;;;;;;12.07;100.00;97813.72;5004041;28;20030;-78
2023/11/25 10:28:20;;;;;;;3.25;1.10;;;;;;;12.09;100.00;97413.19;5009180;28;19953;-78
2023/11/25 10:30:56;;;;;;;8.60;1.85;;;;;;;12.00;98.79;97386.09;5028682;28;20017;-78
2023/11/25 10:33:27;;;;;;;3.38;1.10;;;;;;;11.82;97.24;97419.31;4990653;28;20389;-75
2023/11/25 10:35:54;;;;;;;3.20;0.80;;;;;;;10.98;96.85;97291.53;5010585;28;20041;-75
2023/11/25 10:38:22;;;;;;;6.18;1.23;;;;;;;11.33;95.62;97365.06;5009296;28;20117;-76
2023/11/25 10:40:50;;;;;;;3.08;1.17;;;;;;;10.97;94.94;97231.97;5023411;28;20044;-76
2023/11/25 10:43:18;;;;;;;3.85;0.95;;;;;;;10.03;97.07;97323.53;5016196;28;20041;-75
2023/11/25 10:45:44;;;;;;;5.82;1.63;;;;;;;8.76;100.00;97501.03;4992706;28;20038;-75
2023/11/25 10:48:11;;;;;;;4.18;1.02;;;;;;;7.91;100.00;97850.00;5007090;28;20041;-75
2023/11/25 10:50:40;;;;;;;9.52;1.67;;;;;;;9.01;100.00;98267.22;5032819;28;20030;-75
2023/11/25 10:53:06;;;;;;;6.18;1.02;;;;;;;9.53;100.00;98341.69;5008473;28;20064;-75
2023/11/25 10:55:33;;;;;;;6.57;1.15;;;;;;;9.94;100.00;98273.72;5014791;28;20424;-76
2023/11/25 10:58:00;;;;;;;6.80;1.48;;;;;;;9.83;100.00;98232.63;5006342;28;20026;-75
2023/11/25 11:00:30;;;;;;;4.47;0.80;;;;;;;8.99;100.00;98007.63;5021054;28;20030;-75
2023/11/25 11:02:57;;;;;;;5.85;1.45;;;;;;;8.66;100.00;98282.69;5006134;28;20038;-78
2023/11/25 11:05:32;;;;;;;5.75;1.20;;;;;;;8.15;100.00;98084.91;5011950;28;20489;-78
2023/11/25 11:08:06;;;;;;;8.80;1.17;;;;;;;9.69;100.00;98615.59;5035533;28;20080;-78
2023/11/25 11:10:41;;;;;;;4.63;0.85;;;;;;;8.75;100.00;98262.00;5034959;28;20116;-78
2023/11/25 11:13:10;;;;;;;9.50;1.33;;;;;;;8.47;100.00;98443.94;5020995;28;20065;-77
2023/11/25 11:15:38;;;;;;;6.63;1.05;;;;;;;7.84;100.00;98566.47;5006241;28;20046;-77
2023/11/25 11:18:13;;;;;;;7.45;1.42;;;;;;;7.15;100.00;98538.13;4975977;28;20033;-77
2023/11/25 11:20:52;;;;;;;6.97;1.20;;;;;;;7.29;100.00;98801.81;5005402;28;20088;-77
2023/11/25 11:23:19;;;;;;;4.00;0.90;;;;;;;7.32;100.00;98990.72;5007363;28;20056;-77
2023/11/25 11:26:07;;;;;;;4.13;1.17;;;;;;;6.88;100.00;98930.53;5023271;28;20448;-77
2023/11/25 11:28:43;;;;;;;8.60;1.50;;;;;;;6.71;100.00;99070.44;5021538;28;20045;-77
2023/11/25 11:31:18;;;;;;;;;;;;;;;6.43;100.00;99072.00;5009767;28;20038;-77
2023/11/25 11:33:43;;;;;;;6.68;2.38;;;;;;;6.43;100.00;99247.78;5012864;28;20041;-77
2023/11/25 11:36:29;;;;;;;7.20;1.40;;;;;;;6.41;100.00;99267.50;5013882;28;20054;-76
2023/11/25 11:38:56;;;;;;;6.78;0.98;;;;;;;6.23;100.00;99204.16;5021930;28;20307;-76
2023/11/25 11:41:21;;;;;;;4.05;1.88;;;;;;;6.17;100.00;99241.94;5009934;28;20333;-77
2023/11/25 11:44:15;;;;;;;6.97;1.90;;;;;;;6.66;100.00;99327.41;5039498;28;20685;-76
2023/11/25 11:46:42;;;;;;;4.45;1.55;;;;;;;7.86;100.00;99473.13;5021389;28;20050;-77
2023/11/25 11:49:10;;;;;;;6.15;1.38;;;;;;;8.29;100.00;99251.94;5008069;28;20029;-76
2023/11/25 11:51:35;;;;;;;3.53;0.90;;;;;;;8.32;100.00;98781.78;5005186;28;20033;-77